createdAt,value
2019-03-31T00:01:44.783Z,2.40
2019-03-31T00:04:12.822Z,2.10
2019-03-31T00:06:40.893Z,2.23
2019-03-31T00:09:08.948Z,2.37
2019-03-31T00:11:37.001Z,2.43
2019-03-31T00:14:05.076Z,2.87
2019-03-31T00:16:33.117Z,2.83
2019-03-31T00:19:01.163Z,2.03
2019-03-31T00:21:29.357Z,2.13
2019-03-31T00:23:57.391Z,2.40
2019-03-31T00:26:25.412Z,2.20
2019-03-31T00:28:53.450Z,2.43
2019-03-31T00:31:22.640Z,2.10
2019-03-31T00:33:50.966Z,2.50
2019-03-31T00:36:19.028Z,2.50
2019-03-31T00:38:47.080Z,1.70
2019-03-31T00:41:15.124Z,3.00
2019-03-31T00:43:43.168Z,2.40
2019-03-31T00:46:11.179Z,2.10
2019-03-31T00:48:39.261Z,2.50
2019-03-31T00:51:07.308Z,2.47
2019-03-31T00:53:35.359Z,1.90
2019-03-31T00:56:03.439Z,1.90
2019-03-31T00:58:31.484Z,2.10
2019-03-31T01:01:17.860Z,2.20
2019-03-31T01:03:45.891Z,2.23
2019-03-31T01:06:14.462Z,2.20
2019-03-31T01:08:42.442Z,2.00
2019-03-31T01:11:14.029Z,2.13
2019-03-31T01:13:42.648Z,2.27
2019-03-31T01:16:12.666Z,2.23
2019-03-31T01:18:40.871Z,2.20
2019-03-31T01:21:08.930Z,2.10
2019-03-31T01:23:37.027Z,2.10
2019-03-31T01:26:05.191Z,2.37
2019-03-31T01:28:33.314Z,2.30
2019-03-31T01:31:01.719Z,2.13
2019-03-31T01:33:30.059Z,2.50
2019-03-31T01:35:58.090Z,2.20
2019-03-31T01:38:26.121Z,2.10
2019-03-31T01:40:54.129Z,2.40
2019-03-31T01:43:22.204Z,2.53
2019-03-31T01:45:50.255Z,2.07
2019-03-31T01:48:18.292Z,2.27
2019-03-31T01:50:46.330Z,2.27
2019-03-31T01:53:14.415Z,2.00
2019-03-31T01:55:42.432Z,2.00
2019-03-31T01:58:10.455Z,2.03
2019-03-31T02:00:48.216Z,2.10
2019-03-31T02:03:16.230Z,2.37
2019-03-31T02:05:44.364Z,2.43
2019-03-31T02:08:12.496Z,1.90
2019-03-31T02:10:40.513Z,2.30
2019-03-31T02:13:08.556Z,1.90
2019-03-31T02:15:36.724Z,2.33
2019-03-31T02:18:04.834Z,2.10
2019-03-31T02:20:32.858Z,2.20
2019-03-31T02:23:00.924Z,2.10
2019-03-31T02:25:28.960Z,1.83
2019-03-31T02:27:57.056Z,2.17
2019-03-31T02:30:25.083Z,1.83
2019-03-31T02:32:53.155Z,2.00
2019-03-31T02:35:21.178Z,1.93
2019-03-31T02:37:49.224Z,2.27
2019-03-31T02:40:17.274Z,2.10
2019-03-31T02:42:45.369Z,2.33
2019-03-31T02:45:13.408Z,2.03
2019-03-31T02:47:41.440Z,2.00
2019-03-31T02:50:11.368Z,2.07
2019-03-31T02:52:39.498Z,2.00
2019-03-31T02:55:07.538Z,1.97
2019-03-31T02:57:35.560Z,1.93
2019-03-31T03:00:03.730Z,1.90
2019-03-31T03:02:41.434Z,1.80
2019-03-31T03:05:17.747Z,2.00
2019-03-31T03:07:33.018Z,1.80
2019-03-31T03:10:01.038Z,2.07
2019-03-31T03:12:29.996Z,2.47
2019-03-31T03:14:58.046Z,2.10
2019-03-31T03:17:26.063Z,1.80
2019-03-31T03:19:54.156Z,2.17
2019-03-31T03:22:22.177Z,1.80
2019-03-31T03:24:50.398Z,2.00
2019-03-31T03:27:18.423Z,2.23
2019-03-31T03:29:46.483Z,2.17
2019-03-31T03:32:14.634Z,1.97
2019-03-31T03:34:42.642Z,1.90
2019-03-31T03:37:10.885Z,2.10
2019-03-31T03:39:38.917Z,1.77
2019-03-31T03:42:06.930Z,1.87
2019-03-31T03:44:34.970Z,1.83
2019-03-31T03:47:03.006Z,2.00
2019-03-31T03:49:31.095Z,1.97
2019-03-31T03:51:59.142Z,2.00
2019-03-31T03:54:27.197Z,1.90
2019-03-31T03:56:55.260Z,1.90
2019-03-31T03:59:23.291Z,2.13
2019-03-31T04:01:51.437Z,1.90
2019-03-31T04:04:19.482Z,1.90
2019-03-31T04:06:47.500Z,2.10
2019-03-31T04:09:15.725Z,1.80
2019-03-31T04:11:43.817Z,1.43
2019-03-31T04:14:11.840Z,1.77
2019-03-31T04:16:39.894Z,1.93
2019-03-31T04:19:07.915Z,2.33
2019-03-31T04:21:36.118Z,1.60
2019-03-31T04:24:04.154Z,2.03
2019-03-31T04:26:32.177Z,1.60
2019-03-31T04:29:00.250Z,2.13
2019-03-31T04:31:28.301Z,2.07
2019-03-31T04:33:56.432Z,1.90
2019-03-31T04:36:24.481Z,1.60
2019-03-31T04:38:52.574Z,1.73
2019-03-31T04:41:20.597Z,1.80
2019-03-31T04:43:48.620Z,1.63
2019-03-31T04:46:16.705Z,1.80
2019-03-31T04:48:44.728Z,1.73
2019-03-31T04:51:12.814Z,1.90
2019-03-31T04:53:40.869Z,1.80
2019-03-31T04:56:08.874Z,1.70
2019-03-31T04:58:36.942Z,1.53
2019-03-31T05:01:04.955Z,1.70
2019-03-31T05:03:33.145Z,1.43
2019-03-31T05:06:01.185Z,1.80
2019-03-31T05:08:29.217Z,1.73
2019-03-31T05:10:57.299Z,1.60
2019-03-31T05:13:25.313Z,1.53
2019-03-31T05:15:53.330Z,1.53
2019-03-31T05:18:21.379Z,1.70
2019-03-31T05:20:49.382Z,1.77
2019-03-31T05:23:17.476Z,1.60
2019-03-31T05:25:45.510Z,1.70
2019-03-31T05:28:13.507Z,1.30
2019-03-31T05:30:41.575Z,1.90
2019-03-31T05:33:09.588Z,1.50
2019-03-31T05:35:37.739Z,1.57
2019-03-31T05:38:05.778Z,1.57
2019-03-31T05:40:33.796Z,1.60
2019-03-31T05:43:01.868Z,1.37
2019-03-31T05:45:29.896Z,1.50
2019-03-31T05:47:58.075Z,1.43
2019-03-31T05:50:26.102Z,1.50
2019-03-31T05:52:54.227Z,1.70
2019-03-31T05:55:22.336Z,1.70
2019-03-31T05:57:50.336Z,1.87
2019-03-31T06:00:28.833Z,1.40
2019-03-31T06:02:56.849Z,1.93
2019-03-31T06:05:24.951Z,1.60
2019-03-31T06:07:52.983Z,1.40
2019-03-31T06:10:21.089Z,1.30
2019-03-31T06:12:49.111Z,1.60
2019-03-31T06:15:17.170Z,1.67
2019-03-31T06:17:45.271Z,1.73
2019-03-31T06:20:13.289Z,1.43
2019-03-31T06:22:41.750Z,1.80
2019-03-31T06:25:09.790Z,1.93
2019-03-31T06:27:37.976Z,1.60
2019-03-31T06:30:06.008Z,1.87
2019-03-31T06:32:34.075Z,1.50
2019-03-31T06:35:03.247Z,1.40
2019-03-31T06:37:31.287Z,1.70
2019-03-31T06:39:59.335Z,1.50
2019-03-31T06:42:27.370Z,1.43
2019-03-31T06:44:55.441Z,1.50
2019-03-31T06:47:23.463Z,1.90
2019-03-31T06:49:51.480Z,1.40
2019-03-31T06:52:19.583Z,1.17
2019-03-31T06:54:47.636Z,1.70
2019-03-31T06:57:15.667Z,1.50
2019-03-31T06:59:43.713Z,1.40
2019-03-31T07:02:11.758Z,1.80
2019-03-31T07:04:39.816Z,1.20
2019-03-31T07:07:07.898Z,1.50
2019-03-31T07:09:35.939Z,1.70
2019-03-31T07:12:03.974Z,1.50
2019-03-31T07:14:32.065Z,1.37
2019-03-31T07:17:00.057Z,1.77
2019-03-31T07:19:28.079Z,1.30
2019-03-31T07:21:56.148Z,1.10
2019-03-31T07:24:24.179Z,1.67
2019-03-31T07:26:52.264Z,1.70
2019-03-31T07:29:20.269Z,1.30
2019-03-31T07:31:48.288Z,1.60
2019-03-31T07:34:16.325Z,1.77
2019-03-31T07:36:44.331Z,1.60
2019-03-31T07:39:12.632Z,1.37
2019-03-31T07:41:40.847Z,1.83
2019-03-31T07:44:08.918Z,1.43
2019-03-31T07:46:36.982Z,1.33
2019-03-31T07:49:05.041Z,1.63
2019-03-31T07:51:33.098Z,1.60
2019-03-31T07:54:01.122Z,1.40
2019-03-31T07:56:29.202Z,1.20
2019-03-31T07:58:57.232Z,1.50
2019-03-31T08:01:25.324Z,1.40
2019-03-31T08:03:53.407Z,1.30
2019-03-31T08:06:21.442Z,1.40
2019-03-31T08:08:49.498Z,1.30
2019-03-31T08:11:17.596Z,1.40
2019-03-31T08:13:45.704Z,1.40
2019-03-31T08:16:13.710Z,1.63
2019-03-31T08:18:41.839Z,1.10
2019-03-31T08:21:09.905Z,1.30
2019-03-31T08:23:37.924Z,1.70
2019-03-31T08:26:05.979Z,1.70
2019-03-31T08:28:34.079Z,1.33
2019-03-31T08:31:02.125Z,1.23
2019-03-31T08:33:30.167Z,1.27
2019-03-31T08:35:58.233Z,1.40
2019-03-31T08:38:26.260Z,1.53
2019-03-31T08:40:54.323Z,1.40
2019-03-31T08:43:22.366Z,1.47
2019-03-31T08:45:50.411Z,1.17
2019-03-31T08:48:18.427Z,1.20
2019-03-31T08:50:46.468Z,1.43
2019-03-31T08:53:14.551Z,1.43
2019-03-31T08:55:42.756Z,1.27
2019-03-31T08:58:10.772Z,1.40
2019-03-31T09:01:04.147Z,1.50
2019-03-31T09:03:32.165Z,1.63
2019-03-31T09:06:02.299Z,1.43
2019-03-31T09:08:30.193Z,1.30
2019-03-31T09:10:58.209Z,1.73
2019-03-31T09:13:26.249Z,1.47
2019-03-31T09:15:54.437Z,1.50
2019-03-31T09:18:22.503Z,1.43
2019-03-31T09:20:50.519Z,1.30
2019-03-31T09:23:18.606Z,1.20
2019-03-31T09:25:47.776Z,1.00
2019-03-31T09:28:16.131Z,1.30
2019-03-31T09:30:44.161Z,1.20
2019-03-31T09:33:12.208Z,1.20
2019-03-31T09:35:40.242Z,1.47
2019-03-31T09:38:08.272Z,1.20
2019-03-31T09:40:36.441Z,1.30
2019-03-31T09:43:04.595Z,1.30
2019-03-31T09:45:32.711Z,1.13
2019-03-31T09:48:00.771Z,1.13
2019-03-31T09:50:28.819Z,1.30
2019-03-31T09:52:56.851Z,1.43
2019-03-31T09:55:25.022Z,1.50
2019-03-31T09:57:53.094Z,1.30
2019-03-31T10:00:43.545Z,1.50
2019-03-31T10:03:11.594Z,1.50
2019-03-31T10:05:39.611Z,1.57
2019-03-31T10:08:07.682Z,1.50
2019-03-31T10:10:35.708Z,1.50
2019-03-31T10:13:03.750Z,1.23
2019-03-31T10:15:31.945Z,1.50
2019-03-31T10:17:59.977Z,1.43
2019-03-31T10:20:31.295Z,1.30
2019-03-31T10:22:57.929Z,1.47
2019-03-31T10:25:26.015Z,1.37
2019-03-31T10:27:54.118Z,1.20
2019-03-31T10:30:30.683Z,1.23
2019-03-31T10:32:58.701Z,1.30
2019-03-31T10:35:26.760Z,1.40
2019-03-31T10:37:54.805Z,1.40
2019-03-31T10:40:22.851Z,1.60
2019-03-31T10:42:50.917Z,1.10
2019-03-31T10:45:18.950Z,1.40
2019-03-31T10:47:46.986Z,1.60
2019-03-31T10:50:15.039Z,1.33
2019-03-31T10:52:43.074Z,1.50
2019-03-31T10:55:11.111Z,1.30
2019-03-31T10:57:39.159Z,1.40
2019-03-31T11:00:07.379Z,1.30
2019-03-31T11:02:35.402Z,1.07
2019-03-31T11:05:03.895Z,1.40
2019-03-31T11:07:31.920Z,1.20
2019-03-31T11:09:59.952Z,1.73
2019-03-31T11:12:28.010Z,1.23
2019-03-31T11:14:56.045Z,1.50
2019-03-31T11:17:24.131Z,1.37
2019-03-31T11:19:52.133Z,1.60
2019-03-31T11:22:42.609Z,1.30
2019-03-31T11:25:20.628Z,1.40
2019-03-31T11:27:43.689Z,1.10
2019-03-31T11:30:10.583Z,1.17
2019-03-31T11:32:38.590Z,1.20
2019-03-31T11:35:06.808Z,1.20
2019-03-31T11:37:34.826Z,1.13
2019-03-31T11:40:02.869Z,1.20
2019-03-31T11:42:30.960Z,1.30
2019-03-31T11:44:58.994Z,1.20
2019-03-31T11:47:27.024Z,1.30
2019-03-31T11:49:55.092Z,1.53
2019-03-31T11:52:23.148Z,1.40
2019-03-31T11:54:51.180Z,1.47
2019-03-31T11:57:19.393Z,1.33
2019-03-31T11:59:49.689Z,1.33
2019-03-31T12:02:26.969Z,1.50
2019-03-31T12:04:47.337Z,1.73
2019-03-31T12:07:27.384Z,1.40
2019-03-31T12:09:45.327Z,1.47
2019-03-31T12:12:13.349Z,1.60
2019-03-31T12:14:41.397Z,1.40
2019-03-31T12:17:09.438Z,1.23
2019-03-31T12:19:37.488Z,1.40
2019-03-31T12:22:05.547Z,1.40
2019-03-31T12:24:33.588Z,1.27
2019-03-31T12:27:01.710Z,1.50
2019-03-31T12:29:29.731Z,1.30
2019-03-31T12:31:57.758Z,1.80
2019-03-31T12:34:25.820Z,1.27
2019-03-31T12:36:53.915Z,1.13
2019-03-31T12:39:21.982Z,1.47
2019-03-31T12:41:49.999Z,1.30
2019-03-31T12:44:18.100Z,1.47
2019-03-31T12:46:46.091Z,1.40
2019-03-31T12:49:14.184Z,1.33
2019-03-31T12:51:42.206Z,1.00
2019-03-31T12:54:10.237Z,1.40
2019-03-31T12:56:38.313Z,1.47
2019-03-31T12:59:06.370Z,1.37
2019-03-31T13:01:34.428Z,1.20
2019-03-31T13:04:02.468Z,1.10
2019-03-31T13:06:30.483Z,1.20
2019-03-31T13:08:58.560Z,1.30
2019-03-31T13:11:26.605Z,1.20
2019-03-31T13:13:54.644Z,1.40
2019-03-31T13:16:22.811Z,1.17
2019-03-31T13:18:50.848Z,1.30
2019-03-31T13:21:18.963Z,1.23
2019-03-31T13:23:47.000Z,1.23
2019-03-31T13:26:15.268Z,1.10
2019-03-31T13:28:43.367Z,1.20
2019-03-31T13:31:11.391Z,1.23
2019-03-31T13:33:39.422Z,1.17
2019-03-31T13:36:07.504Z,1.37
2019-03-31T13:38:35.538Z,1.33
2019-03-31T13:41:03.569Z,1.50
2019-03-31T13:43:31.610Z,1.30
2019-03-31T13:46:00.292Z,1.77
2019-03-31T13:48:28.511Z,1.37
2019-03-31T13:50:56.522Z,0.93
2019-03-31T13:53:24.528Z,1.10
2019-03-31T13:55:52.705Z,1.30
2019-03-31T13:58:22.948Z,1.40
2019-03-31T14:00:50.848Z,1.57
2019-03-31T14:03:18.836Z,1.83
2019-03-31T14:05:46.833Z,1.47
2019-03-31T14:08:25.705Z,1.00
2019-03-31T14:10:44.837Z,1.30
2019-03-31T14:13:12.886Z,1.00
2019-03-31T14:15:40.910Z,1.33
2019-03-31T14:18:08.925Z,1.27
2019-03-31T14:20:37.011Z,1.43
2019-03-31T14:23:05.038Z,1.70
2019-03-31T14:25:33.044Z,1.37
2019-03-31T14:28:01.100Z,1.27
2019-03-31T14:30:29.146Z,1.17
2019-03-31T14:32:57.213Z,1.13
2019-03-31T14:35:25.260Z,1.20
2019-03-31T14:37:53.341Z,1.40
2019-03-31T14:40:21.346Z,1.17
2019-03-31T14:42:49.379Z,1.70
2019-03-31T14:45:37.168Z,1.10
2019-03-31T14:48:05.486Z,1.40
2019-03-31T14:50:37.653Z,1.03
2019-03-31T14:53:05.767Z,1.13
2019-03-31T14:55:33.836Z,1.50
2019-03-31T14:58:01.927Z,1.23
2019-03-31T15:00:30.052Z,1.23
2019-03-31T15:02:58.101Z,1.23
2019-03-31T15:05:26.157Z,1.57
2019-03-31T15:07:54.163Z,1.17
2019-03-31T15:10:22.351Z,1.20
2019-03-31T15:12:50.362Z,1.10
2019-03-31T15:15:18.411Z,1.30
2019-03-31T15:17:46.468Z,1.27
2019-03-31T15:20:14.501Z,1.37
2019-03-31T15:22:42.771Z,1.10
2019-03-31T15:25:10.795Z,1.03
2019-03-31T15:27:38.834Z,1.10
2019-03-31T15:30:07.058Z,1.10
2019-03-31T15:32:35.063Z,0.90
2019-03-31T15:35:03.185Z,1.13
2019-03-31T15:37:31.251Z,1.30
2019-03-31T15:39:59.265Z,1.47
2019-03-31T15:42:27.287Z,1.03
2019-03-31T15:44:55.437Z,1.07
2019-03-31T15:47:23.470Z,1.00
2019-03-31T15:49:51.482Z,1.20
2019-03-31T15:52:19.562Z,0.90
2019-03-31T15:54:47.584Z,1.17
2019-03-31T15:57:15.610Z,0.97
2019-03-31T15:59:49.447Z,0.90
2019-03-31T16:02:17.756Z,1.10
2019-03-31T16:04:45.766Z,0.90
2019-03-31T16:07:13.781Z,1.00
2019-03-31T16:09:41.279Z,1.23
2019-03-31T16:12:08.751Z,1.10
2019-03-31T16:14:36.245Z,1.13
2019-03-31T16:17:03.731Z,1.00
2019-03-31T16:19:31.274Z,1.07
2019-03-31T16:21:58.734Z,1.20
2019-03-31T16:24:41.104Z,1.10
2019-03-31T16:27:08.640Z,1.30
2019-03-31T16:29:36.142Z,1.10
2019-03-31T16:32:03.768Z,1.33
2019-03-31T16:34:31.254Z,1.20
2019-03-31T16:36:58.746Z,0.90
2019-03-31T16:39:36.893Z,0.97
2019-03-31T16:41:55.718Z,1.30
2019-03-31T16:44:23.198Z,1.23
2019-03-31T16:46:50.700Z,1.30
2019-03-31T16:49:18.223Z,1.27
2019-03-31T16:51:45.694Z,1.20
2019-03-31T16:54:13.181Z,1.20
2019-03-31T16:56:40.671Z,1.30
2019-03-31T16:59:08.237Z,1.10
2019-03-31T17:01:35.709Z,1.20
2019-03-31T17:04:03.346Z,1.00
2019-03-31T17:06:30.812Z,1.10
2019-03-31T17:08:58.274Z,0.90
2019-03-31T17:11:25.766Z,1.00
2019-03-31T17:13:53.207Z,1.10
2019-03-31T17:16:20.769Z,1.10
2019-03-31T17:18:48.213Z,1.17
2019-03-31T17:21:15.705Z,1.13
2019-03-31T17:23:43.195Z,1.20
2019-03-31T17:26:10.785Z,1.10
2019-03-31T17:28:38.315Z,1.10
2019-03-31T17:31:05.776Z,1.20
2019-03-31T17:33:33.243Z,1.03
2019-03-31T17:36:00.729Z,1.30
2019-03-31T17:38:28.196Z,1.00
2019-03-31T17:40:55.758Z,1.10
2019-03-31T17:43:23.246Z,1.20
2019-03-31T17:45:50.738Z,1.30
2019-03-31T17:48:18.362Z,1.10
2019-03-31T17:50:45.849Z,1.23
2019-03-31T17:53:13.331Z,1.17
2019-03-31T17:55:40.886Z,1.30
2019-03-31T17:58:08.437Z,1.10
2019-03-31T18:00:35.938Z,0.93
2019-03-31T18:03:03.434Z,0.90
2019-03-31T18:05:30.994Z,1.30
2019-03-31T18:07:58.463Z,1.03
2019-03-31T18:10:25.958Z,1.00
2019-03-31T18:12:53.516Z,1.10
2019-03-31T18:15:21.013Z,1.00
2019-03-31T18:17:48.606Z,1.20
2019-03-31T18:20:16.097Z,1.37
2019-03-31T18:22:43.568Z,1.00
2019-03-31T18:25:11.121Z,1.03
2019-03-31T18:27:39.177Z,1.17
2019-03-31T18:30:06.762Z,1.00
2019-03-31T18:32:34.272Z,1.23
2019-03-31T18:35:01.813Z,1.17
2019-03-31T18:37:29.374Z,1.20
2019-03-31T18:39:56.927Z,1.00
2019-03-31T18:42:24.463Z,0.90
2019-03-31T18:44:52.291Z,0.90
2019-03-31T18:47:19.862Z,1.03
2019-03-31T18:49:47.352Z,1.00
2019-03-31T18:52:14.923Z,1.03
2019-03-31T18:55:01.964Z,1.00
2019-03-31T18:58:07.176Z,1.10
2019-03-31T19:01:05.992Z,1.40
2019-03-31T19:03:53.098Z,1.30
2019-03-31T19:06:42.641Z,1.17
2019-03-31T19:09:48.187Z,1.20
2019-03-31T19:12:47.150Z,1.00
2019-03-31T19:15:26.116Z,1.20
2019-03-31T19:18:31.515Z,1.13
2019-03-31T19:21:27.647Z,1.17
2019-03-31T19:24:20.923Z,0.90
2019-03-31T19:27:05.979Z,1.40
2019-03-31T19:29:53.042Z,1.00
2019-03-31T19:32:36.224Z,1.00
2019-03-31T19:35:35.789Z,1.27
2019-03-31T19:38:25.734Z,1.20
2019-03-31T19:41:18.432Z,1.10
2019-03-31T19:44:14.147Z,1.20
2019-03-31T19:46:56.864Z,1.10
2019-03-31T19:49:52.951Z,0.90
2019-03-31T19:52:42.806Z,1.40
2019-03-31T19:55:48.251Z,1.20
2019-03-31T19:58:43.753Z,1.10
2019-03-31T20:01:42.567Z,1.00
2019-03-31T20:04:22.682Z,0.90
2019-03-31T20:07:15.682Z,1.40
2019-03-31T20:09:49.249Z,1.20
2019-03-31T20:12:45.571Z,1.10
2019-03-31T20:15:35.598Z,1.30
2019-03-31T20:18:20.979Z,1.00
2019-03-31T20:20:58.127Z,1.20
2019-03-31T20:23:30.465Z,1.30
2019-03-31T20:26:08.914Z,1.30
2019-03-31T20:28:58.739Z,1.10
2019-03-31T20:31:51.869Z,1.30
2019-03-31T20:34:41.931Z,0.93
2019-03-31T20:37:23.141Z,1.10
2019-03-31T20:40:22.184Z,1.10
2019-03-31T20:43:09.186Z,1.10
2019-03-31T20:45:36.746Z,1.13
2019-03-31T20:48:04.292Z,0.80
2019-03-31T20:50:31.814Z,1.20
2019-03-31T20:52:59.338Z,1.03
2019-03-31T20:55:26.861Z,1.13
2019-03-31T20:57:54.399Z,1.27
2019-03-31T21:00:21.869Z,0.90
2019-03-31T21:02:49.366Z,1.20
2019-03-31T21:05:16.883Z,1.17
2019-03-31T21:07:44.371Z,0.90
2019-03-31T21:10:11.914Z,1.10
2019-03-31T21:12:39.379Z,1.10
2019-03-31T21:15:07.158Z,1.00
2019-03-31T21:17:34.691Z,1.10
2019-03-31T21:20:02.201Z,1.20
2019-03-31T21:22:29.688Z,1.20
2019-03-31T21:24:57.172Z,1.03
2019-03-31T21:27:24.683Z,0.90
2019-03-31T21:29:52.151Z,1.10
2019-03-31T21:32:19.694Z,1.20
2019-03-31T21:34:47.228Z,1.00
2019-03-31T21:37:14.777Z,1.07
2019-03-31T21:39:42.312Z,1.10
2019-03-31T21:42:09.782Z,1.20
2019-03-31T21:44:37.302Z,1.00
2019-03-31T21:47:04.795Z,0.97
2019-03-31T21:49:32.340Z,0.90
2019-03-31T21:51:59.911Z,1.00
2019-03-31T21:54:27.492Z,1.17
2019-03-31T21:56:54.976Z,0.93
2019-03-31T21:59:22.476Z,1.00
2019-03-31T22:01:49.959Z,0.90
2019-03-31T22:04:17.587Z,0.90
2019-03-31T22:06:45.062Z,1.00
2019-03-31T22:09:12.547Z,1.00
2019-03-31T22:11:40.134Z,1.00
2019-03-31T22:14:10.349Z,1.20
2019-03-31T22:16:37.019Z,1.00
2019-03-31T22:19:04.676Z,0.90
2019-03-31T22:21:32.203Z,0.80
2019-03-31T22:23:59.694Z,0.80
2019-03-31T22:26:27.198Z,1.10
2019-03-31T22:28:54.817Z,1.10
2019-03-31T22:31:22.404Z,1.03
2019-03-31T22:33:49.861Z,0.83
2019-03-31T22:36:24.314Z,1.20
2019-03-31T22:38:52.194Z,0.87
2019-03-31T22:41:19.690Z,1.00
2019-03-31T22:43:47.901Z,0.90
2019-03-31T22:46:15.494Z,1.17
2019-03-31T22:48:42.985Z,1.20
2019-03-31T22:51:10.493Z,1.00
2019-03-31T22:53:38.238Z,0.90
2019-03-31T22:56:05.790Z,0.90
2019-03-31T22:58:33.294Z,0.90
2019-03-31T23:01:00.920Z,1.00
2019-03-31T23:03:28.406Z,1.10
2019-03-31T23:05:56.219Z,1.10
2019-03-31T23:08:23.709Z,0.97
2019-03-31T23:10:51.360Z,1.03
2019-03-31T23:13:18.860Z,1.00
2019-03-31T23:15:46.356Z,1.10
2019-03-31T23:18:13.890Z,1.00
2019-03-31T23:20:41.368Z,1.07
2019-03-31T23:23:08.910Z,1.20
2019-03-31T23:25:36.387Z,0.83
2019-03-31T23:28:03.884Z,1.03
2019-03-31T23:30:31.404Z,0.90
2019-03-31T23:32:58.889Z,0.90
2019-03-31T23:35:26.419Z,1.10
2019-03-31T23:37:54.058Z,1.03
2019-03-31T23:40:21.525Z,0.90
2019-03-31T23:42:49.030Z,1.10
2019-03-31T23:45:16.593Z,0.80
2019-03-31T23:47:44.084Z,1.20
2019-03-31T23:50:11.563Z,1.00
2019-03-31T23:52:39.098Z,1.00
2019-03-31T23:55:06.611Z,1.10
2019-03-31T23:57:41.033Z,0.90
